createdAt,value
2016-03-14T00:00:14.417Z,0
2016-03-14T00:01:14.451Z,0
2016-03-14T00:02:14.423Z,0
2016-03-14T00:03:14.487Z,0
2016-03-14T00:04:14.428Z,0
2016-03-14T00:05:14.462Z,0
2016-03-14T00:06:14.324Z,0
2016-03-14T00:07:14.483Z,0
2016-03-14T00:08:14.486Z,0
2016-03-14T00:09:14.489Z,0
2016-03-14T00:10:14.522Z,0
2016-03-14T00:11:14.541Z,0
2016-03-14T00:12:14.559Z,0
2016-03-14T00:13:14.374Z,0
2016-03-14T00:14:14.564Z,0
2016-03-14T00:15:14.567Z,0
2016-03-14T00:16:14.585Z,0
2016-03-14T00:17:14.573Z,0
2016-03-14T00:18:14.622Z,0
2016-03-14T00:19:14.625Z,0
2016-03-14T00:20:14.627Z,0
2016-03-14T00:21:14.646Z,0
2016-03-14T00:22:14.632Z,0
2016-03-14T00:23:14.651Z,0
2016-03-14T00:24:14.654Z,0
2016-03-14T00:25:14.671Z,0
2016-03-14T00:26:14.690Z,0
2016-03-14T00:27:14.677Z,0
2016-03-14T00:28:14.727Z,0
2016-03-14T00:29:14.714Z,0
2016-03-14T00:30:14.748Z,0
2016-03-14T00:31:14.720Z,0
2016-03-14T00:32:14.769Z,0
2016-03-14T00:33:14.756Z,0
2016-03-14T00:34:14.775Z,0
2016-03-14T00:35:14.839Z,0
2016-03-14T00:36:14.781Z,0
2016-03-14T00:37:14.845Z,0
2016-03-14T00:38:14.801Z,0
2016-03-14T00:39:14.850Z,0
2016-03-14T00:40:14.853Z,0
2016-03-14T00:41:14.839Z,0
2016-03-14T00:42:14.874Z,0
2016-03-14T00:43:14.877Z,0
2016-03-14T00:44:14.880Z,0
2016-03-14T00:45:14.913Z,0
2016-03-14T00:46:14.900Z,0
2016-03-14T00:47:14.903Z,0
2016-03-14T00:48:14.905Z,0
2016-03-14T00:49:14.924Z,0
2016-03-14T00:50:14.943Z,0
2016-03-14T00:51:14.960Z,0
2016-03-14T00:52:14.979Z,0
2016-03-14T00:53:14.982Z,0
2016-03-14T00:54:15.031Z,0
2016-03-14T00:55:14.987Z,0
2016-03-14T00:56:14.990Z,0
2016-03-14T00:57:15.024Z,0
2016-03-14T00:58:15.078Z,0
2016-03-14T00:59:15.695Z,0
2016-03-14T01:00:14.908Z,0
2016-03-14T01:01:15.009Z,0
2016-03-14T01:02:15.281Z,0
2016-03-14T01:03:15.097Z,0
2016-03-14T01:04:15.099Z,0
2016-03-14T01:05:15.117Z,0
2016-03-14T01:06:15.120Z,0
2016-03-14T01:07:15.122Z,0
2016-03-14T01:08:15.158Z,0
2016-03-14T01:09:15.128Z,0
2016-03-14T01:10:15.147Z,0
2016-03-14T01:11:15.211Z,0
2016-03-14T01:12:15.199Z,0
2016-03-14T01:13:15.202Z,0
2016-03-14T01:14:15.204Z,0
2016-03-14T01:15:15.238Z,0
2016-03-14T01:16:15.193Z,0
2016-03-14T01:17:15.212Z,0
2016-03-14T01:18:15.247Z,0
2016-03-14T01:19:15.265Z,0
2016-03-14T01:20:15.267Z,0
2016-03-14T01:21:15.332Z,0
2016-03-14T01:22:15.288Z,0
2016-03-14T01:23:15.290Z,0
2016-03-14T01:24:15.184Z,0
2016-03-14T01:25:15.328Z,0
2016-03-14T01:26:15.173Z,0
2016-03-14T01:27:15.333Z,0
2016-03-14T01:28:15.367Z,0
2016-03-14T01:29:15.354Z,0
2016-03-14T01:30:15.357Z,0
2016-03-14T01:31:15.422Z,0
2016-03-14T01:32:15.393Z,0
2016-03-14T01:33:15.395Z,0
2016-03-14T01:34:15.414Z,0
2016-03-14T01:35:15.433Z,0
2016-03-14T01:36:15.419Z,0
2016-03-14T01:37:15.453Z,0
2016-03-14T01:38:15.456Z,0
2016-03-14T01:39:15.506Z,0
2016-03-14T01:40:15.321Z,0
2016-03-14T01:41:15.480Z,0
2016-03-14T01:42:15.499Z,0
2016-03-14T01:43:15.516Z,0
2016-03-14T01:44:15.504Z,0
2016-03-14T01:45:15.522Z,0
2016-03-14T01:46:15.524Z,0
2016-03-14T01:47:15.543Z,0
2016-03-14T01:48:15.546Z,0
2016-03-14T01:49:15.610Z,0
2016-03-14T01:50:15.582Z,0
2016-03-14T01:51:15.632Z,0
2016-03-14T01:52:15.603Z,0
2016-03-14T01:53:15.637Z,0
2016-03-14T01:54:15.670Z,0
2016-03-14T01:55:15.674Z,0
2016-03-14T01:56:15.676Z,0
2016-03-14T01:57:15.710Z,0
2016-03-14T01:58:15.698Z,0
2016-03-14T01:59:15.700Z,0
2016-03-14T02:00:15.687Z,0
2016-03-14T02:01:15.721Z,0
2016-03-14T02:02:15.708Z,0
2016-03-14T02:03:15.742Z,0
2016-03-14T02:04:15.729Z,0
2016-03-14T02:05:15.764Z,0
2016-03-14T02:06:15.766Z,0
2016-03-14T02:07:15.769Z,0
2016-03-14T02:08:15.787Z,0
2016-03-14T02:09:15.789Z,0
2016-03-14T02:10:15.824Z,0
2016-03-14T02:11:15.795Z,0
2016-03-14T02:12:15.829Z,0
2016-03-14T02:13:15.832Z,0
2016-03-14T02:14:15.866Z,0
2016-03-14T02:15:15.837Z,0
2016-03-14T02:16:15.886Z,0
2016-03-14T02:17:15.874Z,0
2016-03-14T02:18:15.907Z,0
2016-03-14T02:19:15.894Z,0
2016-03-14T02:20:15.913Z,0
2016-03-14T02:21:15.899Z,0
2016-03-14T02:22:15.949Z,0
2016-03-14T02:23:15.936Z,0
2016-03-14T02:24:15.940Z,0
2016-03-14T02:25:16.004Z,0
2016-03-14T02:26:16.007Z,0
2016-03-14T02:27:15.963Z,0
2016-03-14T02:28:16.012Z,0
2016-03-14T02:29:16.000Z,0
2016-03-14T02:30:16.018Z,0
2016-03-14T02:31:16.005Z,0
2016-03-14T02:32:16.023Z,0
2016-03-14T02:33:16.056Z,0
2016-03-14T02:34:16.029Z,0
2016-03-14T02:35:16.094Z,0
2016-03-14T02:36:16.065Z,0
2016-03-14T02:37:16.100Z,0
2016-03-14T02:38:16.070Z,0
2016-03-14T02:39:16.136Z,0
2016-03-14T02:40:16.155Z,0
2016-03-14T02:41:16.110Z,0
2016-03-14T02:42:16.143Z,0
2016-03-14T02:43:16.116Z,0
2016-03-14T02:44:16.133Z,0
2016-03-14T02:45:16.152Z,0
2016-03-14T02:46:15.405Z,0
2016-03-14T02:47:16.188Z,0
2016-03-14T02:48:16.183Z,0
2016-03-14T02:49:16.174Z,0
2016-03-14T02:50:16.179Z,0
2016-03-14T02:51:16.169Z,0
2016-03-14T02:52:16.175Z,0
2016-03-14T02:53:16.201Z,0
2016-03-14T02:54:16.184Z,0
2016-03-14T02:55:16.181Z,0
2016-03-14T02:56:16.180Z,0
2016-03-14T02:57:16.256Z,0
2016-03-14T02:58:16.208Z,0
2016-03-14T02:59:16.209Z,0
2016-03-14T03:00:16.211Z,0
2016-03-14T03:01:16.228Z,0
2016-03-14T03:02:16.245Z,0
2016-03-14T03:03:16.231Z,0
2016-03-14T03:04:16.124Z,0
2016-03-14T03:05:16.281Z,0
2016-03-14T03:06:16.298Z,0
2016-03-14T03:07:16.301Z,0
2016-03-14T03:08:16.303Z,0
2016-03-14T03:09:16.150Z,0
2016-03-14T03:10:16.340Z,0
2016-03-14T03:11:16.327Z,0
2016-03-14T03:12:16.329Z,0
2016-03-14T03:13:16.333Z,0
2016-03-14T03:14:16.366Z,0
2016-03-14T03:15:16.447Z,0
2016-03-14T03:16:16.387Z,0
2016-03-14T03:17:16.375Z,0
2016-03-14T03:18:16.440Z,0
2016-03-14T03:19:16.396Z,0
2016-03-14T03:20:16.429Z,0
2016-03-14T03:21:16.448Z,0
2016-03-14T03:22:16.419Z,0
2016-03-14T03:23:16.437Z,0
2016-03-14T03:24:16.440Z,0
2016-03-14T03:25:16.490Z,0
2016-03-14T03:26:16.476Z,0
2016-03-14T03:27:16.495Z,0
2016-03-14T03:28:16.497Z,0
2016-03-14T03:29:16.500Z,0
2016-03-14T03:30:16.519Z,0
2016-03-14T03:31:16.537Z,0
2016-03-14T03:32:16.525Z,0
2016-03-14T03:33:16.574Z,0
2016-03-14T03:34:16.561Z,0
2016-03-14T03:35:16.720Z,0
2016-03-14T03:36:16.583Z,0
2016-03-14T03:37:16.585Z,0
2016-03-14T03:38:16.588Z,0
2016-03-14T03:39:16.605Z,0
2016-03-14T03:40:16.608Z,0
2016-03-14T03:41:16.642Z,0
2016-03-14T03:42:16.645Z,0
2016-03-14T03:43:16.663Z,0
2016-03-14T03:44:16.635Z,0
2016-03-14T03:45:16.684Z,0
2016-03-14T03:46:16.655Z,0
2016-03-14T03:47:16.673Z,0
2016-03-14T03:48:16.708Z,0
2016-03-14T03:49:16.679Z,0
2016-03-14T03:50:16.760Z,0
2016-03-14T03:51:16.700Z,0
2016-03-14T03:52:16.719Z,0
2016-03-14T03:53:16.737Z,0
2016-03-14T03:54:16.756Z,0
2016-03-14T03:55:16.789Z,0
2016-03-14T03:56:16.776Z,0
2016-03-14T03:57:16.747Z,0
2016-03-14T03:58:16.797Z,0
2016-03-14T03:59:16.831Z,0
2016-03-14T04:00:16.881Z,0
2016-03-14T04:01:16.883Z,0
2016-03-14T04:02:16.823Z,0
2016-03-14T04:03:16.872Z,0
2016-03-14T04:04:16.891Z,0
2016-03-14T04:05:16.925Z,0
2016-03-14T04:06:16.850Z,0
2016-03-14T04:07:16.899Z,0
2016-03-14T04:08:16.886Z,0
2016-03-14T04:09:16.905Z,0
2016-03-14T04:10:16.924Z,0
2016-03-14T04:11:16.942Z,0
2016-03-14T04:12:16.944Z,0
2016-03-14T04:13:16.946Z,0
2016-03-14T04:14:16.965Z,0
2016-03-14T04:15:16.952Z,0
2016-03-14T04:16:17.018Z,0
2016-03-14T04:17:16.989Z,0
2016-03-14T04:18:17.024Z,0
2016-03-14T04:19:17.025Z,0
2016-03-14T04:20:17.028Z,0
2016-03-14T04:21:17.062Z,0
2016-03-14T04:22:17.018Z,0
2016-03-14T04:23:17.068Z,0
2016-03-14T04:24:17.040Z,0
2016-03-14T04:25:17.057Z,0
2016-03-14T04:26:17.092Z,0
2016-03-14T04:27:17.079Z,0
2016-03-14T04:28:17.098Z,0
2016-03-14T04:29:17.100Z,0
2016-03-14T04:30:17.118Z,0
2016-03-14T04:31:17.105Z,0
2016-03-14T04:32:17.154Z,0
2016-03-14T04:33:17.126Z,0
2016-03-14T04:34:17.160Z,0
2016-03-14T04:35:17.178Z,0
2016-03-14T04:36:17.181Z,0
2016-03-14T04:37:17.183Z,0
2016-03-14T04:38:17.202Z,0
2016-03-14T04:39:17.236Z,0
2016-03-14T04:40:17.223Z,0
2016-03-14T04:41:17.210Z,0
2016-03-14T04:42:17.260Z,0
2016-03-14T04:43:17.230Z,0
2016-03-14T04:44:17.266Z,0
2016-03-14T04:45:17.252Z,0
2016-03-14T04:46:17.302Z,0
2016-03-14T04:47:17.273Z,0
2016-03-14T04:48:17.291Z,0
2016-03-14T04:49:17.278Z,0
2016-03-14T04:50:17.312Z,0
2016-03-14T04:51:17.315Z,0
2016-03-14T04:52:17.318Z,0
2016-03-14T04:53:17.367Z,0
2016-03-14T04:54:17.338Z,0
2016-03-14T04:55:17.388Z,0
2016-03-14T04:56:17.359Z,0
2016-03-14T04:57:17.378Z,0
2016-03-14T04:58:17.381Z,0
2016-03-14T04:59:17.430Z,0
2016-03-14T05:00:17.386Z,0
2016-03-14T05:01:17.436Z,0
2016-03-14T05:02:17.439Z,0
2016-03-14T05:03:17.426Z,0
2016-03-14T05:04:17.444Z,0
2016-03-14T05:05:17.447Z,0
2016-03-14T05:06:17.495Z,0
2016-03-14T05:07:17.467Z,0
2016-03-14T05:08:17.345Z,0
2016-03-14T05:09:17.489Z,0
2016-03-14T05:10:17.522Z,0
2016-03-14T05:11:17.478Z,0
2016-03-14T05:12:17.527Z,0
2016-03-14T05:13:17.514Z,0
2016-03-14T05:14:17.564Z,0
2016-03-14T05:15:17.552Z,0
2016-03-14T05:16:17.601Z,0
2016-03-14T05:17:17.572Z,0
2016-03-14T05:18:17.574Z,0
2016-03-14T05:19:17.594Z,0
2016-03-14T05:20:17.627Z,0
2016-03-14T05:21:17.646Z,0
2016-03-14T05:22:17.617Z,0
2016-03-14T05:23:17.620Z,0
2016-03-14T05:24:17.653Z,0
2016-03-14T05:25:17.640Z,0
2016-03-14T05:26:17.659Z,0
2016-03-14T05:27:17.693Z,0
2016-03-14T05:28:17.695Z,0
2016-03-14T05:29:17.698Z,0
2016-03-14T05:30:17.700Z,0
2016-03-14T05:31:17.703Z,0
2016-03-14T05:32:17.722Z,0
2016-03-14T05:33:17.740Z,0
2016-03-14T05:34:17.758Z,0
2016-03-14T05:35:17.761Z,0
2016-03-14T05:36:17.764Z,0
2016-03-14T05:37:17.783Z,0
2016-03-14T05:38:17.786Z,0
2016-03-14T05:39:17.803Z,0
2016-03-14T05:40:17.806Z,0
2016-03-14T05:41:17.808Z,0
2016-03-14T05:42:17.827Z,0
2016-03-14T05:43:17.830Z,0
2016-03-14T05:44:17.848Z,0
2016-03-14T05:45:17.835Z,0
2016-03-14T05:46:17.853Z,0
2016-03-14T05:47:17.699Z,0
2016-03-14T05:48:17.890Z,0
2016-03-14T05:49:17.908Z,0
2016-03-14T05:50:17.910Z,0
2016-03-14T05:51:17.929Z,0
2016-03-14T05:52:17.916Z,0
2016-03-14T05:53:32.029Z,0
2016-03-14T05:54:17.937Z,0
2016-03-14T05:55:17.956Z,0
2016-03-14T05:56:17.959Z,0
2016-03-14T05:57:17.961Z,0
2016-03-14T05:58:17.979Z,0
2016-03-14T05:59:17.981Z,0
2016-03-14T06:00:17.969Z,0
2016-03-14T06:01:17.987Z,0
2016-03-14T06:02:18.006Z,0
2016-03-14T06:03:18.023Z,0
2016-03-14T06:04:18.011Z,0
2016-03-14T06:05:18.028Z,0
2016-03-14T06:06:18.053Z,0
2016-03-14T06:07:18.040Z,0
2016-03-14T06:08:18.089Z,0
2016-03-14T06:09:18.077Z,0
2016-03-14T06:10:18.110Z,5
2016-03-14T06:11:18.097Z,5
2016-03-14T06:12:18.099Z,5
2016-03-14T06:13:18.134Z,5
2016-03-14T06:14:18.121Z,5
2016-03-14T06:15:18.155Z,5
2016-03-14T06:16:18.173Z,5
2016-03-14T06:17:18.176Z,5
2016-03-14T06:18:18.178Z,5
2016-03-14T06:19:18.166Z,5
2016-03-14T06:20:18.168Z,5
2016-03-14T06:21:18.187Z,5
2016-03-14T06:22:18.204Z,5
2016-03-14T06:23:18.239Z,5
2016-03-14T06:24:18.226Z,5
2016-03-14T06:25:18.245Z,5
2016-03-14T06:26:18.231Z,5
2016-03-14T06:27:18.281Z,5
2016-03-14T06:28:18.267Z,5
2016-03-14T06:29:18.286Z,5
2016-03-14T06:30:18.258Z,5
2016-03-14T06:31:18.307Z,5
2016-03-14T06:32:18.295Z,5
2016-03-14T06:33:18.312Z,5
2016-03-14T06:34:18.315Z,5
2016-03-14T06:35:18.333Z,5
2016-03-14T06:36:18.336Z,10
2016-03-14T06:37:18.370Z,10
2016-03-14T06:38:18.358Z,10
2016-03-14T06:39:18.375Z,10
2016-03-14T06:40:18.378Z,10
2016-03-14T06:41:18.396Z,10
2016-03-14T06:42:18.400Z,10
2016-03-14T06:43:18.402Z,5
2016-03-14T06:44:18.436Z,5
2016-03-14T06:45:18.438Z,5
2016-03-14T06:46:18.472Z,5
2016-03-14T06:47:18.474Z,5
2016-03-14T06:48:18.446Z,10
2016-03-14T06:49:18.480Z,10
2016-03-14T06:50:18.468Z,10
2016-03-14T06:51:18.485Z,10
2016-03-14T06:52:18.504Z,10
2016-03-14T06:53:18.490Z,10
2016-03-14T06:54:18.509Z,10
2016-03-14T06:55:18.528Z,10
2016-03-14T06:56:18.546Z,10
2016-03-14T06:57:18.533Z,10
2016-03-14T06:58:18.598Z,10
2016-03-14T06:59:18.554Z,10
2016-03-14T07:00:18.604Z,10
2016-03-14T07:01:18.560Z,10
2016-03-14T07:02:18.594Z,10
2016-03-14T07:03:18.612Z,10
2016-03-14T07:04:18.599Z,10
2016-03-14T07:05:18.617Z,10
2016-03-14T07:06:18.636Z,10
2016-03-14T07:07:18.654Z,15
2016-03-14T07:08:18.657Z,15
2016-03-14T07:09:18.675Z,15
2016-03-14T07:10:18.662Z,15
2016-03-14T07:11:18.680Z,15
2016-03-14T07:12:18.699Z,10
2016-03-14T07:13:18.701Z,10
2016-03-14T07:14:18.736Z,10
2016-03-14T07:15:18.707Z,10
2016-03-14T07:16:18.741Z,10
2016-03-14T07:17:18.727Z,10
2016-03-14T07:18:18.778Z,10
2016-03-14T07:19:18.780Z,15
2016-03-14T07:20:18.768Z,15
2016-03-14T07:21:18.801Z,15
2016-03-14T07:22:18.648Z,15
2016-03-14T07:23:18.806Z,15
2016-03-14T07:24:18.810Z,15
2016-03-14T07:25:18.812Z,15
2016-03-14T07:26:18.830Z,15
2016-03-14T07:27:18.848Z,15
2016-03-14T07:28:18.867Z,15
2016-03-14T07:29:18.884Z,15
2016-03-14T07:30:19.059Z,15
2016-03-14T07:31:18.937Z,15
2016-03-14T07:32:18.878Z,20
2016-03-14T07:33:18.943Z,20
2016-03-14T07:34:18.883Z,20
2016-03-14T07:35:18.933Z,20
2016-03-14T07:36:18.936Z,20
2016-03-14T07:37:18.939Z,20
2016-03-14T07:38:18.956Z,20
2016-03-14T07:39:18.958Z,20
2016-03-14T07:40:19.008Z,20
2016-03-14T07:41:18.980Z,20
2016-03-14T07:42:18.967Z,20
2016-03-14T07:43:18.986Z,20
2016-03-14T07:44:19.003Z,20
2016-03-14T07:45:19.006Z,20
2016-03-14T07:46:19.040Z,20
2016-03-14T07:47:19.058Z,20
2016-03-14T07:48:19.046Z,20
2016-03-14T07:49:19.064Z,20
2016-03-14T07:50:19.066Z,20
2016-03-14T07:51:19.069Z,20
2016-03-14T07:52:19.088Z,20
2016-03-14T07:53:19.107Z,20
2016-03-14T07:54:19.093Z,20
2016-03-14T07:55:19.127Z,20
2016-03-14T07:56:19.176Z,20
2016-03-14T07:57:19.132Z,20
2016-03-14T07:58:19.134Z,20
2016-03-14T07:59:19.154Z,20
2016-03-14T08:00:19.171Z,20
2016-03-14T08:01:19.206Z,20
2016-03-14T08:02:19.208Z,20
2016-03-14T08:03:19.258Z,20
2016-03-14T08:04:19.198Z,25
2016-03-14T08:05:19.201Z,25
2016-03-14T08:06:19.231Z,25
2016-03-14T08:07:19.234Z,25
2016-03-14T08:08:19.236Z,25
2016-03-14T08:09:19.256Z,25
2016-03-14T08:10:19.305Z,25
2016-03-14T08:11:19.339Z,25
2016-03-14T08:12:19.294Z,25
2016-03-14T08:13:19.282Z,25
2016-03-14T08:14:19.299Z,30
2016-03-14T08:15:19.333Z,30
2016-03-14T08:16:19.352Z,30
2016-03-14T08:17:19.371Z,30
2016-03-14T08:18:19.341Z,30
2016-03-14T08:19:19.344Z,30
2016-03-14T08:20:18.612Z,30
2016-03-14T08:21:19.365Z,30
2016-03-14T08:22:19.399Z,30
2016-03-14T08:23:19.387Z,30
2016-03-14T08:24:19.436Z,30
2016-03-14T08:25:19.423Z,30
2016-03-14T08:26:19.426Z,30
2016-03-14T08:27:19.429Z,30
2016-03-14T08:28:19.447Z,35
2016-03-14T08:29:19.465Z,35
2016-03-14T08:30:19.498Z,40
2016-03-14T08:31:19.189Z,45
2016-03-14T08:32:19.504Z,45
2016-03-14T08:33:19.523Z,45
2016-03-14T08:34:19.494Z,45
2016-03-14T08:35:19.528Z,45
2016-03-14T08:36:19.531Z,45
2016-03-14T08:37:19.580Z,45
2016-03-14T08:38:19.536Z,40
2016-03-14T08:39:19.570Z,45
2016-03-14T08:40:19.573Z,50
2016-03-14T08:41:19.498Z,45
2016-03-14T08:42:19.594Z,45
2016-03-14T08:43:19.597Z,45
2016-03-14T08:44:19.631Z,50
2016-03-14T08:45:19.649Z,50
2016-03-14T08:46:19.652Z,50
2016-03-14T08:47:19.654Z,50
2016-03-14T08:48:19.657Z,50
2016-03-14T08:49:19.660Z,50
2016-03-14T08:50:19.663Z,60
2016-03-14T08:51:19.696Z,60
2016-03-14T08:52:19.730Z,60
2016-03-14T08:53:19.702Z,60
2016-03-14T08:54:19.720Z,60
2016-03-14T08:55:19.707Z,60
2016-03-14T08:56:19.757Z,60
2016-03-14T08:57:19.759Z,65
2016-03-14T08:58:19.762Z,65
2016-03-14T08:59:19.765Z,65
2016-03-14T09:00:19.768Z,70
2016-03-14T09:01:19.786Z,75
2016-03-14T09:02:19.789Z,90
2016-03-14T09:03:19.853Z,125
2016-03-14T09:04:19.856Z,130
2016-03-14T09:05:19.828Z,145
2016-03-14T09:06:19.846Z,140
2016-03-14T09:07:19.864Z,125
2016-03-14T09:08:19.867Z,145
2016-03-14T09:09:19.885Z,170
2016-03-14T09:10:20.638Z,240
2016-03-14T09:11:19.953Z,140
2016-03-14T09:12:19.924Z,120
2016-03-14T09:13:19.927Z,130
2016-03-14T09:14:19.914Z,145
2016-03-14T09:15:19.917Z,155
2016-03-14T09:16:19.997Z,165
2016-03-14T09:17:19.969Z,220
2016-03-14T09:18:19.971Z,125
2016-03-14T09:19:20.006Z,210
2016-03-14T09:20:19.977Z,150
2016-03-14T09:21:19.996Z,105
2016-03-14T09:22:20.029Z,110
2016-03-14T09:23:19.907Z,115
2016-03-14T09:24:20.050Z,115
2016-03-14T09:25:20.101Z,120
2016-03-14T09:26:20.087Z,110
2016-03-14T09:27:20.121Z,95
2016-03-14T09:28:20.123Z,90
2016-03-14T09:29:20.111Z,100
2016-03-14T09:30:20.145Z,110
2016-03-14T09:31:20.131Z,125
2016-03-14T09:32:20.166Z,105
2016-03-14T09:33:20.184Z,105
2016-03-14T09:34:20.203Z,100
2016-03-14T09:35:20.189Z,95
2016-03-14T09:36:20.223Z,100
2016-03-14T09:37:20.242Z,105
2016-03-14T09:38:20.214Z,105
2016-03-14T09:39:20.216Z,85
2016-03-14T09:40:20.250Z,90
2016-03-14T09:41:20.269Z,85
2016-03-14T09:42:20.334Z,80
2016-03-14T09:43:20.289Z,70
2016-03-14T09:44:20.308Z,70
2016-03-14T09:45:20.295Z,70
2016-03-14T09:46:20.328Z,65
2016-03-14T09:47:20.363Z,60
2016-03-14T09:48:20.271Z,60
2016-03-14T09:49:20.352Z,55
2016-03-14T09:50:20.371Z,55
2016-03-14T09:51:20.404Z,55
2016-03-14T09:52:20.408Z,55
2016-03-14T09:53:20.410Z,55
2016-03-14T09:54:20.444Z,60
2016-03-14T09:55:20.446Z,60
2016-03-14T09:56:20.559Z,70
2016-03-14T09:57:20.498Z,85
2016-03-14T09:58:20.470Z,85
2016-03-14T09:59:20.488Z,85
2016-03-14T10:00:20.491Z,90
2016-03-14T10:01:20.557Z,80
2016-03-14T10:02:20.528Z,80
2016-03-14T10:03:20.562Z,75
2016-03-14T10:04:20.565Z,75
2016-03-14T10:05:20.583Z,75
2016-03-14T10:06:20.450Z,75
2016-03-14T10:07:20.582Z,70
2016-03-14T10:08:20.617Z,65
2016-03-14T10:09:20.650Z,65
2016-03-14T10:10:20.481Z,65
2016-03-14T10:11:20.671Z,70
2016-03-14T10:12:20.658Z,80
2016-03-14T10:13:20.677Z,75
2016-03-14T10:14:20.680Z,70
2016-03-14T10:15:20.697Z,75
2016-03-14T10:16:20.716Z,70
2016-03-14T10:17:20.734Z,75
2016-03-14T10:18:20.737Z,75
2016-03-14T10:19:20.755Z,75
2016-03-14T10:20:20.757Z,80
2016-03-14T10:21:20.777Z,85
2016-03-14T10:22:20.779Z,85
2016-03-14T10:23:20.798Z,80
2016-03-14T10:24:20.815Z,80
2016-03-14T10:25:20.849Z,80
2016-03-14T10:26:20.821Z,85
2016-03-14T10:27:20.854Z,85
2016-03-14T10:28:20.874Z,90
2016-03-14T10:29:20.876Z,100
2016-03-14T10:30:20.910Z,135
2016-03-14T10:31:20.944Z,85
2016-03-14T10:32:20.915Z,85
2016-03-14T10:33:20.918Z,85
2016-03-14T10:34:20.937Z,85
2016-03-14T10:35:20.955Z,85
2016-03-14T10:36:21.019Z,85
2016-03-14T10:37:21.006Z,80
2016-03-14T10:38:21.025Z,75
2016-03-14T10:39:21.044Z,80
2016-03-14T10:40:21.014Z,85
2016-03-14T10:41:21.033Z,85
2016-03-14T10:42:21.067Z,85
2016-03-14T10:43:21.055Z,85
2016-03-14T10:44:21.088Z,85
2016-03-14T10:45:21.107Z,90
2016-03-14T10:46:21.141Z,70
2016-03-14T10:47:21.127Z,65
2016-03-14T10:48:21.115Z,60
2016-03-14T10:49:21.164Z,55
2016-03-14T10:50:21.182Z,55
2016-03-14T10:51:21.185Z,55
2016-03-14T10:52:21.281Z,60
2016-03-14T10:53:21.206Z,55
2016-03-14T10:54:21.224Z,55
2016-03-14T10:55:21.226Z,60
2016-03-14T10:56:21.262Z,60
2016-03-14T10:57:21.279Z,60
2016-03-14T10:58:21.267Z,55
2016-03-14T10:59:21.284Z,55
2016-03-14T11:00:21.287Z,55
2016-03-14T11:01:21.307Z,50
2016-03-14T11:02:21.324Z,50
2016-03-14T11:03:21.327Z,50
2016-03-14T11:04:21.362Z,55
2016-03-14T11:05:21.365Z,55
2016-03-14T11:06:21.398Z,60
2016-03-14T11:07:21.417Z,65
2016-03-14T11:08:21.420Z,70
2016-03-14T11:09:21.781Z,75
2016-03-14T11:10:21.440Z,80
2016-03-14T11:11:21.458Z,85
2016-03-14T11:12:21.461Z,85
2016-03-14T11:13:21.479Z,85
2016-03-14T11:14:21.482Z,90
2016-03-14T11:15:21.517Z,90
2016-03-14T11:16:21.566Z,95
2016-03-14T11:17:21.537Z,100
2016-03-14T11:18:21.539Z,105
2016-03-14T11:19:21.542Z,100
2016-03-14T11:20:21.577Z,100
2016-03-14T11:21:21.595Z,95
2016-03-14T11:22:21.600Z,95
2016-03-14T11:23:21.618Z,105
2016-03-14T11:24:21.605Z,100
2016-03-14T11:25:21.639Z,100
2016-03-14T11:26:21.658Z,100
2016-03-14T11:27:21.644Z,95
2016-03-14T11:28:21.679Z,95
2016-03-14T11:29:21.729Z,90
2016-03-14T11:30:21.699Z,95
2016-03-14T11:31:21.688Z,100
2016-03-14T11:32:21.737Z,110
2016-03-14T11:33:21.755Z,135
2016-03-14T11:34:21.774Z,190
2016-03-14T11:35:21.776Z,220
2016-03-14T11:36:23.451Z,175
2016-03-14T11:37:21.640Z,210
2016-03-14T11:38:21.815Z,220
2016-03-14T11:39:21.834Z,225
2016-03-14T11:40:21.836Z,180
2016-03-14T11:41:21.871Z,210
2016-03-14T11:42:21.873Z,190
2016-03-14T11:43:21.937Z,210
2016-03-14T11:44:21.925Z,205
2016-03-14T11:45:21.928Z,195
2016-03-14T11:46:21.931Z,205
2016-03-14T11:47:21.964Z,205
2016-03-14T11:48:21.967Z,205
2016-03-14T11:49:22.126Z,205
2016-03-14T11:50:21.895Z,175
2016-03-14T11:51:21.991Z,195
2016-03-14T11:52:22.025Z,195
2016-03-14T11:53:21.933Z,195
2016-03-14T11:54:22.039Z,195
2016-03-14T11:55:22.064Z,190
2016-03-14T11:56:22.087Z,185
2016-03-14T11:57:22.096Z,190
2016-03-14T11:58:22.110Z,190
2016-03-14T11:59:22.076Z,195
2016-03-14T12:00:22.106Z,195
2016-03-14T12:01:22.121Z,205
2016-03-14T12:02:22.151Z,205
2016-03-14T12:03:22.166Z,195
2016-03-14T12:04:22.167Z,195
2016-03-14T12:05:22.199Z,205
2016-03-14T12:06:22.295Z,170
2016-03-14T12:07:22.219Z,190
2016-03-14T12:08:22.235Z,190
2016-03-14T12:09:22.253Z,185
2016-03-14T12:10:22.256Z,100
2016-03-14T12:11:22.305Z,185
2016-03-14T12:12:22.292Z,185
2016-03-14T12:13:22.340Z,120
2016-03-14T12:14:22.359Z,185
2016-03-14T12:15:22.376Z,195
2016-03-14T12:16:22.395Z,140
2016-03-14T12:17:22.397Z,180
2016-03-14T12:18:22.446Z,170
2016-03-14T12:19:22.433Z,100
2016-03-14T12:20:22.466Z,105
2016-03-14T12:21:22.501Z,95
2016-03-14T12:22:22.487Z,185
2016-03-14T12:23:22.538Z,100
2016-03-14T12:24:22.555Z,115
2016-03-14T12:25:22.543Z,105
2016-03-14T12:26:22.779Z,100
2016-03-14T12:27:22.626Z,135
2016-03-14T12:28:22.628Z,85
2016-03-14T12:29:22.663Z,85
2016-03-14T12:30:22.682Z,85
2016-03-14T12:31:22.668Z,80
2016-03-14T12:32:22.702Z,80
2016-03-14T12:33:22.704Z,70
2016-03-14T12:34:22.739Z,75
2016-03-14T12:35:22.756Z,70
2016-03-14T12:36:22.792Z,70
2016-03-14T12:37:22.778Z,80
2016-03-14T12:38:22.812Z,70
2016-03-14T12:39:22.815Z,70
2016-03-14T12:40:22.865Z,70
2016-03-14T12:41:22.883Z,80
2016-03-14T12:42:22.901Z,80
2016-03-14T12:43:22.919Z,85
2016-03-14T12:44:22.938Z,155
2016-03-14T12:45:22.924Z,160
2016-03-14T12:46:22.958Z,150
2016-03-14T12:47:22.992Z,145
2016-03-14T12:48:22.994Z,90
2016-03-14T12:49:23.044Z,160
2016-03-14T12:50:23.063Z,75
2016-03-14T12:51:23.082Z,70
2016-03-14T12:52:23.084Z,75
2016-03-14T12:53:23.103Z,75
2016-03-14T12:54:23.121Z,70
2016-03-14T12:55:23.154Z,65
2016-03-14T12:56:23.158Z,75
2016-03-14T12:57:23.176Z,95
2016-03-14T12:58:23.210Z,145
2016-03-14T12:59:23.212Z,145
2016-03-14T13:00:23.231Z,115
2016-03-14T13:01:23.248Z,125
2016-03-14T13:02:23.267Z,150
2016-03-14T13:03:23.270Z,150
2016-03-14T13:04:23.334Z,130
2016-03-14T13:05:23.322Z,115
2016-03-14T13:06:23.325Z,140
2016-03-14T13:07:23.342Z,100
2016-03-14T13:08:23.393Z,80
2016-03-14T13:09:23.364Z,80
2016-03-14T13:10:23.398Z,80
2016-03-14T13:11:23.417Z,80
2016-03-14T13:12:23.419Z,75
2016-03-14T13:13:23.469Z,140
2016-03-14T13:14:23.502Z,70
2016-03-14T13:15:23.489Z,135
2016-03-14T13:16:23.492Z,120
2016-03-14T13:17:23.527Z,60
2016-03-14T13:18:23.560Z,70
2016-03-14T13:19:23.407Z,75
2016-03-14T13:20:23.580Z,100
2016-03-14T13:21:23.646Z,95
2016-03-14T13:22:23.633Z,140
2016-03-14T13:23:23.620Z,135
2016-03-14T13:24:23.655Z,135
2016-03-14T13:25:23.673Z,130
2016-03-14T13:26:23.738Z,110
2016-03-14T13:27:23.724Z,120
2016-03-14T13:28:23.760Z,55
2016-03-14T13:29:23.762Z,55
2016-03-14T13:30:23.779Z,55
2016-03-14T13:31:23.767Z,60
2016-03-14T13:32:23.785Z,120
2016-03-14T13:33:23.851Z,100
2016-03-14T13:34:23.869Z,60
2016-03-14T13:35:23.856Z,120
2016-03-14T13:37:23.892Z,125
2016-03-14T13:38:23.911Z,85
2016-03-14T13:39:23.945Z,105
2016-03-14T13:40:23.963Z,90
2016-03-14T13:41:23.998Z,55
2016-03-14T13:42:24.000Z,70
2016-03-14T13:43:23.987Z,75
2016-03-14T13:44:24.005Z,55
2016-03-14T13:45:24.039Z,110
2016-03-14T13:46:24.058Z,120
2016-03-14T13:47:24.107Z,65
2016-03-14T13:48:24.110Z,110
2016-03-14T13:49:24.113Z,105
2016-03-14T13:50:24.116Z,110
2016-03-14T13:51:24.133Z,55
2016-03-14T13:52:24.183Z,55
2016-03-14T13:53:24.185Z,110
2016-03-14T13:54:24.189Z,90
2016-03-14T13:55:24.222Z,120
2016-03-14T13:56:24.256Z,70
2016-03-14T13:57:24.259Z,75
2016-03-14T13:58:24.277Z,70
2016-03-14T13:59:24.296Z,120
2016-03-14T14:00:24.329Z,85
2016-03-14T14:01:24.332Z,60
2016-03-14T14:02:24.365Z,110
2016-03-14T14:03:24.353Z,65
2016-03-14T14:04:24.356Z,120
2016-03-14T14:05:24.421Z,125
2016-03-14T14:06:24.445Z,130
2016-03-14T14:07:24.447Z,95
2016-03-14T14:08:24.449Z,125
2016-03-14T14:09:24.452Z,95
2016-03-14T14:10:24.502Z,70
2016-03-14T14:11:24.520Z,120
2016-03-14T14:12:24.554Z,115
2016-03-14T14:13:24.589Z,75
2016-03-14T14:14:24.559Z,70
2016-03-14T14:15:24.578Z,65
2016-03-14T14:16:24.611Z,60
2016-03-14T14:17:24.599Z,60
2016-03-14T14:18:24.649Z,55
2016-03-14T14:19:24.651Z,60
2016-03-14T14:20:24.654Z,60
2016-03-14T14:21:24.532Z,55
2016-03-14T14:22:24.722Z,60
2016-03-14T14:23:24.724Z,55
2016-03-14T14:24:24.758Z,55
2016-03-14T14:25:24.761Z,55